createdAt,value
2019-05-25T00:04:12.665Z,5.00
2019-05-25T00:09:27.963Z,5.50
2019-05-25T00:14:50.644Z,5.50
2019-05-25T00:19:55.239Z,5.40
2019-05-25T00:24:59.825Z,6.00
2019-05-25T00:30:04.933Z,5.00
2019-05-25T00:35:09.996Z,4.60
2019-05-25T00:40:14.436Z,6.00
2019-05-25T00:45:18.934Z,6.60
2019-05-25T00:50:23.323Z,5.20
2019-05-25T00:55:27.551Z,6.00
2019-05-25T01:00:31.923Z,5.00
2019-05-25T01:05:38.449Z,5.75
2019-05-25T01:10:42.782Z,4.20
2019-05-25T01:15:48.501Z,5.80
2019-05-25T01:20:53.002Z,5.00
2019-05-25T01:25:58.457Z,5.00
2019-05-25T01:31:02.915Z,5.20
2019-05-25T01:36:07.337Z,5.50
2019-05-25T01:41:11.922Z,4.00
2019-05-25T01:46:16.364Z,5.25
2019-05-25T01:51:21.044Z,5.00
2019-05-25T01:56:25.493Z,5.80
2019-05-25T02:01:29.927Z,5.80
2019-05-25T02:06:34.362Z,4.00
2019-05-25T02:11:38.772Z,4.40
2019-05-25T02:16:43.243Z,4.80
2019-05-25T02:21:47.560Z,3.40
2019-05-25T02:26:51.941Z,3.80
2019-05-25T02:31:56.720Z,5.00
2019-05-25T02:37:01.705Z,4.40
2019-05-25T02:42:08.583Z,4.50
2019-05-25T02:47:13.267Z,4.00
2019-05-25T02:52:18.797Z,3.80
2019-05-25T02:57:40.172Z,4.00
2019-05-25T03:02:42.142Z,4.00
2019-05-25T03:07:46.737Z,5.20
2019-05-25T03:12:52.247Z,3.00
2019-05-25T03:18:00.427Z,4.60
2019-05-25T03:23:06.707Z,3.75
2019-05-25T03:28:12.603Z,4.00
2019-05-25T03:33:18.859Z,5.00
2019-05-25T03:38:50.559Z,6.00
2019-05-25T03:44:08.226Z,4.20
2019-05-25T03:49:21.864Z,4.80
2019-05-25T03:54:32.675Z,3.75
2019-05-25T03:59:38.397Z,4.00
2019-05-25T04:04:42.839Z,4.00
2019-05-25T04:09:47.736Z,4.50
2019-05-25T04:14:52.812Z,3.00
2019-05-25T04:19:57.410Z,5.00
2019-05-25T04:25:04.606Z,4.00
2019-05-25T04:30:09.980Z,4.00
2019-05-25T04:35:19.681Z,3.60
2019-05-25T04:40:37.410Z,4.25
2019-05-25T04:45:45.045Z,4.75
2019-05-25T04:50:50.354Z,4.50
2019-05-25T04:55:54.987Z,4.00
2019-05-25T05:00:59.566Z,4.50
2019-05-25T05:06:04.278Z,3.50
2019-05-25T05:11:09.464Z,3.00
2019-05-25T05:16:14.274Z,3.50
2019-05-25T05:21:18.862Z,6.20
2019-05-25T05:26:23.936Z,3.50
2019-05-25T05:31:33.336Z,4.00
2019-05-25T05:36:38.097Z,3.40
2019-05-25T05:41:42.761Z,3.50
2019-05-25T05:46:49.484Z,4.00
2019-05-25T05:51:55.689Z,4.60
2019-05-25T05:57:11.686Z,3.40
2019-05-25T06:02:06.570Z,4.75
2019-05-25T06:07:11.170Z,2.75
2019-05-25T06:12:15.549Z,5.00
2019-05-25T06:17:19.955Z,3.40
2019-05-25T06:22:24.537Z,3.25
2019-05-25T06:27:29.133Z,4.00
2019-05-25T06:32:34.995Z,2.25
2019-05-25T06:37:39.455Z,2.50
2019-05-25T06:42:44.380Z,2.20
2019-05-25T06:47:48.965Z,3.00
2019-05-25T06:52:53.060Z,5.40
2019-05-25T06:57:57.076Z,2.50
2019-05-25T07:03:01.249Z,5.25
2019-05-25T07:08:05.400Z,7.00
2019-05-25T07:13:09.520Z,5.00
2019-05-25T07:18:13.805Z,4.60
2019-05-25T07:23:17.827Z,4.75
2019-05-25T07:28:22.099Z,4.67
2019-05-25T07:33:26.188Z,3.33
2019-05-25T07:38:30.320Z,3.00
2019-05-25T07:43:34.401Z,3.50
2019-05-25T07:48:38.411Z,4.50
2019-05-25T07:53:42.505Z,4.60
2019-05-25T07:58:46.496Z,6.00
2019-05-25T08:03:50.615Z,6.40
2019-05-25T08:08:54.672Z,7.40
2019-05-25T08:13:58.675Z,8.60
2019-05-25T08:19:02.771Z,8.25
2019-05-25T08:24:07.131Z,10.75
2019-05-25T08:29:11.238Z,7.75
2019-05-25T08:34:15.251Z,7.00
2019-05-25T08:39:19.271Z,7.25
2019-05-25T08:44:23.274Z,7.00
2019-05-25T08:49:27.279Z,5.60
2019-05-25T08:54:31.456Z,6.60
2019-05-25T08:59:35.623Z,5.00
2019-05-25T09:04:39.665Z,6.00
2019-05-25T09:09:43.933Z,4.00
2019-05-25T09:14:47.959Z,3.50
2019-05-25T09:19:52.156Z,3.20
2019-05-25T09:24:56.229Z,2.00
2019-05-25T09:30:00.295Z,3.00
2019-05-25T09:35:04.720Z,3.60
2019-05-25T09:40:09.690Z,2.40
2019-05-25T09:45:14.352Z,3.75
2019-05-25T09:50:18.693Z,3.00
2019-05-25T09:55:23.267Z,2.80
2019-05-25T10:00:28.153Z,3.00
2019-05-25T10:05:33.154Z,2.80
2019-05-25T10:10:37.598Z,5.50
2019-05-25T10:15:51.102Z,4.40
2019-05-25T10:20:56.733Z,3.20
2019-05-25T10:26:00.781Z,5.00
2019-05-25T10:31:05.010Z,8.40
2019-05-25T10:36:09.249Z,5.75
2019-05-25T10:41:13.389Z,5.60
2019-05-25T10:46:17.744Z,7.80
2019-05-25T10:51:22.127Z,9.00
2019-05-25T10:56:26.196Z,12.75
2019-05-25T11:01:30.337Z,12.60
2019-05-25T11:06:35.025Z,7.00
2019-05-25T11:11:39.319Z,10.20
2019-05-25T11:16:43.444Z,8.50
2019-05-25T11:21:47.482Z,9.60
2019-05-25T11:26:51.685Z,7.75
2019-05-25T11:32:00.699Z,21.00
2019-05-25T11:37:01.507Z,11.25
2019-05-25T11:42:05.677Z,15.00
2019-05-25T11:47:09.676Z,14.75
2019-05-25T11:52:13.883Z,13.75
2019-05-25T11:57:18.018Z,12.25
2019-05-25T12:02:22.039Z,12.75
2019-05-25T12:07:26.050Z,16.50
2019-05-25T12:12:30.149Z,16.75
2019-05-25T12:17:34.201Z,18.40
2019-05-25T12:22:38.304Z,13.20
2019-05-25T12:27:42.510Z,14.75
2019-05-25T12:32:46.682Z,16.20
2019-05-25T12:37:50.780Z,16.00
2019-05-25T12:42:54.887Z,15.80
2019-05-25T12:47:59.259Z,19.50
2019-05-25T12:53:03.281Z,17.25
2019-05-25T12:58:07.293Z,16.60
2019-05-25T13:03:11.383Z,16.60
2019-05-25T13:08:15.472Z,17.60
2019-05-25T13:13:19.567Z,14.80
2019-05-25T13:18:23.651Z,15.80
2019-05-25T13:23:27.796Z,15.40
2019-05-25T13:28:31.910Z,19.50
2019-05-25T13:33:35.968Z,14.50
2019-05-25T13:38:40.017Z,16.00
2019-05-25T13:43:44.109Z,16.00
2019-05-25T13:48:48.123Z,18.60
2019-05-25T13:53:52.235Z,20.00
2019-05-25T13:58:56.406Z,20.80
2019-05-25T14:04:00.575Z,15.00
2019-05-25T14:09:06.127Z,17.80
2019-05-25T14:14:10.264Z,15.20
2019-05-25T14:19:14.326Z,19.00
2019-05-25T14:24:18.477Z,18.25
2019-05-25T14:29:25.975Z,14.75
2019-05-25T14:34:28.347Z,15.80
2019-05-25T14:39:32.493Z,15.40
2019-05-25T14:44:36.906Z,17.00
2019-05-25T14:49:41.130Z,17.40
2019-05-25T14:54:45.260Z,15.00
2019-05-25T14:59:49.362Z,14.60
2019-05-25T15:04:53.483Z,15.60
2019-05-25T15:09:57.530Z,13.00
2019-05-25T15:15:01.713Z,14.60
2019-05-25T15:20:07.255Z,16.83
2019-05-25T15:25:11.598Z,14.17
2019-05-25T15:30:15.869Z,14.20
2019-05-25T15:35:20.672Z,13.20
2019-05-25T15:40:29.218Z,16.20
2019-05-25T15:45:47.323Z,15.60
2019-05-25T16:02:05.803Z,14.25
2019-05-25T16:07:09.836Z,13.50
2019-05-25T16:12:13.888Z,12.60
2019-05-25T16:17:18.117Z,13.00
2019-05-25T16:22:22.155Z,11.50
2019-05-25T16:27:26.170Z,13.20
2019-05-25T16:32:30.319Z,11.25
2019-05-25T16:37:34.694Z,13.80
2019-05-25T16:42:38.932Z,11.25
2019-05-25T16:47:43.317Z,16.00
2019-05-25T16:52:50.537Z,15.20
2019-05-25T16:57:54.843Z,14.20
2019-05-25T17:02:59.505Z,14.60
2019-05-25T17:08:03.801Z,13.75
2019-05-25T17:13:08.243Z,11.50
2019-05-25T17:18:12.445Z,9.60
2019-05-25T17:23:20.350Z,11.00
2019-05-25T17:28:27.131Z,12.25
2019-05-25T17:33:45.260Z,11.00
2019-05-25T17:38:37.368Z,12.00
2019-05-25T17:43:41.492Z,12.40
2019-05-25T17:48:45.872Z,9.75
2019-05-25T17:53:49.984Z,10.00
2019-05-25T17:58:54.039Z,9.00
2019-05-25T18:04:06.288Z,8.75
2019-05-25T18:09:05.496Z,11.00
2019-05-25T18:14:09.621Z,10.00
2019-05-25T18:19:13.901Z,10.60
2019-05-25T18:24:18.036Z,8.75
2019-05-25T18:29:23.900Z,7.60
2019-05-25T18:34:28.124Z,8.25
2019-05-25T18:39:32.226Z,10.00
2019-05-25T18:44:36.279Z,7.80
2019-05-25T18:49:40.405Z,9.00
2019-05-25T18:54:44.451Z,8.00
2019-05-25T18:59:48.980Z,9.00
2019-05-25T19:04:59.446Z,7.75
2019-05-25T19:09:58.786Z,8.20
2019-05-25T19:15:05.012Z,7.20
2019-05-25T19:20:09.977Z,6.60
2019-05-25T19:25:14.570Z,8.00
2019-05-25T19:30:18.998Z,9.00
2019-05-25T19:35:23.168Z,8.20
2019-05-25T19:40:27.205Z,6.00
2019-05-25T19:45:32.898Z,6.40
2019-05-25T19:50:37.171Z,8.40
2019-05-25T19:55:41.289Z,6.00
2019-05-25T20:00:45.396Z,7.20
2019-05-25T20:05:49.496Z,7.50
2019-05-25T20:10:55.740Z,6.75
2019-05-25T20:15:59.327Z,9.00
2019-05-25T20:21:03.427Z,7.40
2019-05-25T20:26:07.501Z,6.00
2019-05-25T20:31:11.712Z,5.50
2019-05-25T20:36:15.864Z,6.25
2019-05-25T20:41:20.098Z,7.00
2019-05-25T20:46:24.198Z,5.00
2019-05-25T20:51:28.303Z,6.80
2019-05-25T20:56:32.429Z,7.00
2019-05-25T21:01:36.799Z,5.80
2019-05-25T21:06:41.174Z,6.25
2019-05-25T21:11:45.218Z,6.00
2019-05-25T21:16:49.237Z,6.50
2019-05-25T21:21:53.347Z,5.00
2019-05-25T21:26:57.496Z,6.00
2019-05-25T21:32:01.733Z,6.60
2019-05-25T21:37:06.053Z,7.00
2019-05-25T21:42:10.235Z,6.50
2019-05-25T21:47:14.503Z,7.00
2019-05-25T21:52:18.632Z,7.00
2019-05-25T21:57:22.867Z,5.25
2019-05-25T22:02:27.325Z,7.20
2019-05-25T22:07:33.718Z,5.50
2019-05-25T22:12:40.194Z,6.00
2019-05-25T22:17:44.241Z,5.20
2019-05-25T22:22:48.574Z,5.00
2019-05-25T22:27:52.958Z,6.25
2019-05-25T22:32:57.392Z,6.00
2019-05-25T22:38:01.808Z,5.00
2019-05-25T22:43:06.223Z,6.00
2019-05-25T22:48:10.709Z,5.00
2019-05-25T22:53:15.112Z,4.60
2019-05-25T22:58:19.608Z,6.00
2019-05-25T23:03:24.020Z,4.50
2019-05-25T23:08:28.511Z,4.00
2019-05-25T23:13:33.034Z,4.00
2019-05-25T23:18:37.450Z,3.50
2019-05-25T23:23:41.890Z,5.00
2019-05-25T23:28:46.348Z,4.75
2019-05-25T23:33:50.801Z,3.80
2019-05-25T23:38:55.274Z,3.75
2019-05-25T23:44:00.126Z,4.60
2019-05-25T23:49:04.791Z,5.00
2019-05-25T23:54:09.319Z,5.00
2019-05-25T23:59:13.803Z,5.00
